Time;durP1;ratioP1;P1;durP2;ratioP2;P2;SDS_P1;SDS_P2;PMS_P1;PMS_P2;Temp;Humidity;BMP_temperature;BMP_pressure;BME280_temperature;BME280_humidity;BME280_pressure;Samples;Min_cycle;Max_cycle;Signal;HPM_P1;HPM_P2
2022/09/01 00:01:55;;;;;;;1.20;1.00;;;;;;;;;;5091343;28;20222;-47
2022/09/01 00:04:24;;;;;;;1.20;0.90;;;;;;;;;;5091320;28;20679;-47
2022/09/01 00:06:53;;;;;;;1.17;1.07;;;;;;;;;;5091161;28;20654;-49
2022/09/01 00:09:20;;;;;;;1.20;1.10;;;;;;;;;;5091225;28;20625;-49
2022/09/01 00:11:47;;;;;;;1.17;1.07;;;;;;;;;;5091581;28;20290;-49
2022/09/01 00:14:14;;;;;;;1.83;0.87;;;;;;;;;;5091328;28;20228;-49
2022/09/01 00:16:41;;;;;;;1.47;1.13;;;;;;;;;;5091195;28;20601;-49
2022/09/01 00:19:07;;;;;;;1.20;1.10;;;;;;;;;;5091354;28;20234;-49
2022/09/01 00:21:35;;;;;;;1.27;1.00;;;;;;;;;;5091373;28;20286;-49
2022/09/01 00:24:02;;;;;;;1.30;1.03;;;;;;;;;;5091305;28;20205;-48
2022/09/01 00:26:28;;;;;;;1.00;0.90;;;;;;;;;;5090881;28;20221;-49
2022/09/01 00:28:54;;;;;;;2.70;1.23;;;;;;;;;;5090836;28;20187;-49
2022/09/01 00:31:20;;;;;;;1.03;0.93;;;;;;;;;;5091020;28;20218;-49
2022/09/01 00:33:48;;;;;;;1.20;1.10;;;;;;;;;;5091151;28;20614;-50
2022/09/01 00:36:14;;;;;;;1.50;1.10;;;;;;;;;;5091272;28;20194;-49
2022/09/01 00:38:40;;;;;;;1.07;0.97;;;;;;;;;;5091247;28;20234;-49
2022/09/01 00:41:06;;;;;;;1.80;1.03;;;;;;;;;;5091200;28;20215;-49
2022/09/01 00:43:38;;;;;;;1.10;1.00;;;;;;;;;;5091159;28;20257;-50
2022/09/01 00:46:04;;;;;;;1.20;1.10;;;;;;;;;;5095110;28;20262;-49
2022/09/01 00:48:31;;;;;;;2.10;1.07;;;;;;;;;;5095018;28;20210;-49
2022/09/01 00:50:59;;;;;;;1.13;1.03;;;;;;;;;;5094635;28;20195;-49
2022/09/01 00:53:25;;;;;;;1.77;1.10;;;;;;;;;;5093959;28;20209;-49
2022/09/01 00:55:51;;;;;;;2.97;1.20;;;;;;;;;;5094833;28;20194;-49
2022/09/01 00:58:17;;;;;;;2.43;1.47;;;;;;;;;;5094419;28;20594;-50
2022/09/01 01:00:46;;;;;;;0.90;0.90;;;;;;;;;;5094850;28;20340;-49
2022/09/01 01:03:13;;;;;;;1.00;1.00;;;;;;;;;;5094744;28;20229;-49
2022/09/01 01:05:41;;;;;;;1.27;1.10;;;;;;;;;;5094853;28;20199;-49
2022/09/01 01:08:10;;;;;;;1.23;1.10;;;;;;;;;;5094278;28;20243;-49
2022/09/01 01:10:38;;;;;;;1.20;1.10;;;;;;;;;;5094628;28;20237;-49
2022/09/01 01:13:07;;;;;;;2.03;1.30;;;;;;;;;;5094638;28;20201;-50
2022/09/01 01:15:33;;;;;;;4.23;1.20;;;;;;;;;;5094044;28;20259;-50
2022/09/01 01:17:59;;;;;;;1.10;1.00;;;;;;;;;;5094310;28;20249;-55
2022/09/01 01:23:16;;;;;;;1.20;1.20;;;;;;;;;;5094326;28;20233;-49
2022/09/01 01:25:45;;;;;;;1.23;1.13;;;;;;;;;;5094517;28;20199;-49
2022/09/01 01:28:14;;;;;;;1.80;1.10;;;;;;;;;;5094072;28;20203;-49
2022/09/01 01:30:42;;;;;;;1.07;1.07;;;;;;;;;;5094152;28;20201;-50
2022/09/01 01:33:08;;;;;;;1.20;1.10;;;;;;;;;;5094218;28;20195;-49
2022/09/01 01:35:34;;;;;;;1.60;1.07;;;;;;;;;;5093940;28;20209;-49
2022/09/01 01:38:01;;;;;;;1.10;1.10;;;;;;;;;;5094034;28;20248;-50
2022/09/01 01:40:28;;;;;;;1.43;0.90;;;;;;;;;;5093104;28;20553;-49
2022/09/01 01:42:56;;;;;;;1.37;1.00;;;;;;;;;;5093213;28;20257;-49
2022/09/01 01:45:23;;;;;;;1.13;1.03;;;;;;;;;;5093819;28;20625;-49
2022/09/01 01:47:52;;;;;;;1.20;1.10;;;;;;;;;;5094027;28;20198;-48
2022/09/01 01:50:18;;;;;;;1.40;1.20;;;;;;;;;;5093780;28;20209;-49
2022/09/01 01:52:44;;;;;;;2.23;1.10;;;;;;;;;;5093380;28;20653;-49
2022/09/01 01:55:11;;;;;;;1.10;1.00;;;;;;;;;;5093532;28;20191;-49
2022/09/01 01:57:38;;;;;;;0.93;0.87;;;;;;;;;;5093551;28;20226;-49
2022/09/01 02:00:06;;;;;;;1.20;1.10;;;;;;;;;;5093717;28;20199;-49
2022/09/01 02:02:32;;;;;;;1.23;1.10;;;;;;;;;;5093449;28;20205;-48
2022/09/01 02:04:59;;;;;;;1.83;1.37;;;;;;;;;;5093494;28;20224;-48
2022/09/01 02:07:26;;;;;;;1.10;1.00;;;;;;;;;;5093133;28;20322;-49
2022/09/01 02:09:52;;;;;;;1.70;1.30;;;;;;;;;;5093534;28;20187;-50
2022/09/01 02:12:18;;;;;;;1.60;1.10;;;;;;;;;;5093340;28;20227;-49
2022/09/01 02:14:44;;;;;;;1.13;1.00;;;;;;;;;;5093244;28;20202;-49
2022/09/01 02:17:11;;;;;;;1.83;1.03;;;;;;;;;;5093267;28;20199;-49
2022/09/01 02:19:42;;;;;;;1.03;0.93;;;;;;;;;;5093165;28;20234;-49
2022/09/01 02:22:09;;;;;;;1.43;1.20;;;;;;;;;;5093181;28;20704;-50
2022/09/01 02:24:35;;;;;;;1.50;1.40;;;;;;;;;;5093098;28;20236;-49
2022/09/01 02:27:02;;;;;;;1.27;1.17;;;;;;;;;;5093118;28;20202;-49
2022/09/01 02:29:28;;;;;;;1.03;1.00;;;;;;;;;;5092986;28;20260;-50
2022/09/01 02:31:55;;;;;;;1.00;0.90;;;;;;;;;;5092762;28;20738;-49
2022/09/01 02:34:24;;;;;;;1.40;1.30;;;;;;;;;;5092974;28;20217;-49
2022/09/01 02:36:51;;;;;;;1.63;1.10;;;;;;;;;;5092973;28;20281;-49
2022/09/01 02:39:19;;;;;;;1.17;1.03;;;;;;;;;;5092461;28;20261;-49
2022/09/01 02:41:45;;;;;;;1.20;1.10;;;;;;;;;;5092975;28;20202;-49
2022/09/01 02:44:11;;;;;;;2.97;1.30;;;;;;;;;;5092881;28;20226;-49
2022/09/01 02:46:40;;;;;;;1.67;1.20;;;;;;;;;;5092769;28;20290;-49
2022/09/01 02:49:08;;;;;;;1.20;1.10;;;;;;;;;;5092622;28;20649;-48
2022/09/01 02:51:36;;;;;;;1.43;1.33;;;;;;;;;;5092618;28;20201;-49
2022/09/01 02:54:02;;;;;;;1.27;1.20;;;;;;;;;;5092634;28;20660;-49
2022/09/01 02:56:28;;;;;;;1.30;1.20;;;;;;;;;;5092538;28;20195;-49
2022/09/01 02:58:55;;;;;;;0.90;0.90;;;;;;;;;;5092551;28;20325;-49
2022/09/01 03:01:23;;;;;;;1.10;1.07;;;;;;;;;;5092549;28;20199;-49
2022/09/01 03:03:49;;;;;;;1.60;1.03;;;;;;;;;;5092707;28;20206;-49
2022/09/01 03:06:18;;;;;;;1.20;1.03;;;;;;;;;;5091661;28;20235;-49
2022/09/01 03:08:46;;;;;;;1.50;1.33;;;;;;;;;;5092262;28;20195;-49
2022/09/01 03:11:12;;;;;;;1.30;1.20;;;;;;;;;;5092469;28;20210;-49
2022/09/01 03:13:38;;;;;;;1.50;1.40;;;;;;;;;;5092285;28;20194;-49
2022/09/01 03:16:04;;;;;;;1.70;1.30;;;;;;;;;;5092239;28;20203;-49
2022/09/01 03:18:30;;;;;;;2.27;1.00;;;;;;;;;;5091974;28;20214;-49
2022/09/01 03:20:57;;;;;;;1.90;1.20;;;;;;;;;;5091776;28;20203;-49
2022/09/01 03:23:26;;;;;;;1.27;1.10;;;;;;;;;;5092123;28;20222;-49
2022/09/01 03:25:54;;;;;;;1.33;1.17;;;;;;;;;;5092173;28;20282;-49
2022/09/01 03:28:20;;;;;;;1.00;1.00;;;;;;;;;;5091759;28;20563;-48
2022/09/01 03:30:48;;;;;;;0.80;0.80;;;;;;;;;;5092058;28;20282;-47
2022/09/01 03:33:15;;;;;;;1.30;1.20;;;;;;;;;;5092188;28;20200;-47
2022/09/01 03:35:42;;;;;;;1.40;1.30;;;;;;;;;;5091718;28;20218;-47
2022/09/01 03:38:08;;;;;;;2.50;1.20;;;;;;;;;;5091790;28;20264;-47
2022/09/01 03:40:35;;;;;;;1.30;1.20;;;;;;;;;;5091789;28;20195;-47
2022/09/01 03:43:04;;;;;;;1.03;1.00;;;;;;;;;;5091872;28;20197;-47
2022/09/01 03:45:36;;;;;;;1.80;1.10;;;;;;;;;;5090898;28;20198;-48
2022/09/01 03:48:07;;;;;;;1.70;1.20;;;;;;;;;;5091840;28;20684;-49
2022/09/01 03:50:39;;;;;;;2.40;1.30;;;;;;;;;;5091775;28;20203;-50
2022/09/01 03:53:06;;;;;;;1.53;1.10;;;;;;;;;;5091863;28;20207;-49
2022/09/01 03:55:33;;;;;;;1.80;1.40;;;;;;;;;;5091427;28;20194;-50
2022/09/01 03:58:05;;;;;;;3.33;1.40;;;;;;;;;;5091426;28;20191;-49
2022/09/01 04:00:34;;;;;;;1.43;1.33;;;;;;;;;;5091791;28;20259;-49
2022/09/01 04:03:01;;;;;;;1.40;1.30;;;;;;;;;;5091750;28;20576;-49
2022/09/01 04:05:28;;;;;;;1.40;1.30;;;;;;;;;;5091507;28;20244;-49
2022/09/01 04:07:55;;;;;;;1.10;1.00;;;;;;;;;;5091210;28;20696;-50
2022/09/01 04:10:22;;;;;;;1.50;1.33;;;;;;;;;;5091118;28;20752;-50
2022/09/01 04:12:48;;;;;;;2.07;1.30;;;;;;;;;;5091619;28;20207;-50
2022/09/01 04:15:15;;;;;;;2.03;1.10;;;;;;;;;;5091538;28;20278;-51
2022/09/01 04:20:27;;;;;;;1.40;1.30;;;;;;;;;;5094792;28;20198;-50
2022/09/01 04:22:54;;;;;;;1.30;1.20;;;;;;;;;;5095814;28;20282;-50
2022/09/01 04:25:24;;;;;;;1.53;1.27;;;;;;;;;;5095548;28;20194;-50
2022/09/01 04:27:54;;;;;;;1.33;1.10;;;;;;;;;;5095329;28;20707;-50
2022/09/01 04:30:23;;;;;;;1.33;1.20;;;;;;;;;;5095786;28;20206;-49
2022/09/01 04:32:54;;;;;;;1.60;1.30;;;;;;;;;;5095290;28;20194;-49
2022/09/01 04:35:26;;;;;;;2.10;1.20;;;;;;;;;;5095101;28;20210;-50
2022/09/01 04:37:52;;;;;;;1.30;1.20;;;;;;;;;;5095197;28;20233;-49
2022/09/01 04:40:22;;;;;;;2.97;1.30;;;;;;;;;;5095113;28;20190;-49
2022/09/01 04:42:48;;;;;;;1.30;1.20;;;;;;;;;;5095076;28;20198;-50
2022/09/01 04:45:14;;;;;;;4.03;1.60;;;;;;;;;;5093289;28;20210;-49
2022/09/01 04:47:41;;;;;;;1.50;1.33;;;;;;;;;;5094780;28;20183;-49
2022/09/01 04:50:13;;;;;;;2.23;1.20;;;;;;;;;;5094993;28;20597;-50
2022/09/01 04:52:40;;;;;;;1.23;1.13;;;;;;;;;;5095110;28;20210;-49
2022/09/01 04:55:07;;;;;;;2.60;1.33;;;;;;;;;;5094831;28;20252;-48
2022/09/01 04:57:34;;;;;;;1.23;1.13;;;;;;;;;;5094823;28;20562;-49
2022/09/01 05:00:00;;;;;;;2.00;1.20;;;;;;;;;;5094575;28;20231;-50
2022/09/01 05:02:27;;;;;;;1.03;1.03;;;;;;;;;;5094639;28;20237;-53
2022/09/01 05:04:55;;;;;;;1.70;1.27;;;;;;;;;;5094734;28;20615;-49
2022/09/01 05:07:22;;;;;;;1.90;1.40;;;;;;;;;;5094472;28;20234;-48
2022/09/01 05:09:48;;;;;;;2.60;1.10;;;;;;;;;;5094546;28;20195;-49
2022/09/01 05:12:15;;;;;;;1.97;1.30;;;;;;;;;;5094702;28;20206;-49
2022/09/01 05:14:42;;;;;;;1.63;1.53;;;;;;;;;;5094454;28;20202;-49
2022/09/01 05:17:09;;;;;;;1.73;1.60;;;;;;;;;;5094527;28;20264;-49
2022/09/01 05:19:36;;;;;;;1.60;1.50;;;;;;;;;;5093564;28;20238;-49
2022/09/01 05:22:03;;;;;;;1.67;1.23;;;;;;;;;;5094247;28;20199;-50
2022/09/01 05:24:33;;;;;;;2.60;1.90;;;;;;;;;;5094128;28;20202;-49
2022/09/01 05:26:59;;;;;;;1.60;1.50;;;;;;;;;;5094391;28;20620;-49
2022/09/01 05:29:26;;;;;;;2.17;1.70;;;;;;;;;;5093568;28;20195;-48
2022/09/01 05:31:54;;;;;;;1.67;1.40;;;;;;;;;;5093852;28;20210;-51
2022/09/01 05:34:25;;;;;;;1.67;1.40;;;;;;;;;;5092482;28;20688;-49
2022/09/01 05:36:52;;;;;;;1.50;1.40;;;;;;;;;;5094117;28;20708;-49
2022/09/01 05:39:18;;;;;;;2.03;1.50;;;;;;;;;;5094098;28;20227;-48
2022/09/01 05:41:47;;;;;;;2.20;1.43;;;;;;;;;;5092630;28;20727;-48
2022/09/01 05:44:14;;;;;;;1.70;1.50;;;;;;;;;;5094153;28;20605;-50
2022/09/01 05:46:42;;;;;;;2.40;1.53;;;;;;;;;;5093529;28;20692;-50
2022/09/01 05:49:15;;;;;;;1.50;1.40;;;;;;;;;;5094089;28;20222;-50
2022/09/01 05:51:42;;;;;;;4.10;1.60;;;;;;;;;;5093534;28;20211;-49
2022/09/01 05:54:09;;;;;;;1.87;1.60;;;;;;;;;;5093900;28;20282;-48
2022/09/01 05:56:40;;;;;;;1.50;1.40;;;;;;;;;;5093541;28;20676;-51
2022/09/01 05:59:08;;;;;;;2.57;1.33;;;;;;;;;;5093895;28;20223;-50
2022/09/01 06:01:39;;;;;;;2.00;1.50;;;;;;;;;;5093279;28;20764;-48
2022/09/01 06:04:05;;;;;;;2.80;1.33;;;;;;;;;;5092440;28;20195;-49
2022/09/01 06:06:36;;;;;;;1.73;1.50;;;;;;;;;;5092877;28;20323;-50
2022/09/01 06:09:03;;;;;;;1.43;1.20;;;;;;;;;;5093708;28;20195;-49
2022/09/01 06:11:31;;;;;;;4.03;1.83;;;;;;;;;;5093368;28;20718;-51
2022/09/01 06:13:58;;;;;;;2.73;1.50;;;;;;;;;;5093205;28;20202;-50
2022/09/01 06:16:27;;;;;;;1.83;1.27;;;;;;;;;;5093516;28;20373;-49
2022/09/01 06:18:54;;;;;;;1.67;1.30;;;;;;;;;;5093387;28;20305;-50
2022/09/01 06:21:21;;;;;;;3.80;1.60;;;;;;;;;;5093582;28;20225;-50
2022/09/01 06:23:49;;;;;;;2.47;1.20;;;;;;;;;;5093211;28;20203;-50
2022/09/01 06:26:16;;;;;;;1.27;1.17;;;;;;;;;;5091876;28;20205;-50
2022/09/01 06:28:42;;;;;;;1.13;1.03;;;;;;;;;;5092863;28;20684;-49
2022/09/01 06:31:09;;;;;;;2.03;1.50;;;;;;;;;;5093302;28;20252;-49
2022/09/01 06:33:36;;;;;;;1.60;1.50;;;;;;;;;;5092619;28;20244;-49
2022/09/01 06:36:08;;;;;;;1.90;1.37;;;;;;;;;;5093116;28;20219;-50
2022/09/01 06:38:35;;;;;;;2.53;1.20;;;;;;;;;;5092287;28;20215;-49
2022/09/01 06:41:03;;;;;;;2.30;1.30;;;;;;;;;;5092763;28;20787;-48
2022/09/01 06:43:29;;;;;;;1.40;1.30;;;;;;;;;;5092466;28;20226;-48
2022/09/01 06:45:56;;;;;;;2.07;1.20;;;;;;;;;;5092154;28;20199;-48
2022/09/01 06:48:22;;;;;;;2.30;1.33;;;;;;;;;;5092873;28;20234;-49
2022/09/01 06:50:50;;;;;;;1.77;1.40;;;;;;;;;;5092839;28;20195;-48
2022/09/01 06:53:17;;;;;;;2.77;1.40;;;;;;;;;;5092806;28;20280;-51
2022/09/01 06:55:45;;;;;;;2.47;1.20;;;;;;;;;;5092512;28;20206;-49
2022/09/01 06:58:14;;;;;;;2.13;1.23;;;;;;;;;;5091860;28;20253;-49
2022/09/01 07:00:43;;;;;;;1.47;1.10;;;;;;;;;;5092212;28;20207;-50
2022/09/01 07:03:10;;;;;;;2.03;1.30;;;;;;;;;;5092462;28;20214;-50
2022/09/01 07:05:38;;;;;;;1.43;1.30;;;;;;;;;;5092084;28;20558;-48
2022/09/01 07:08:08;;;;;;;1.77;1.10;;;;;;;;;;5091833;28;20607;-48
2022/09/01 07:10:38;;;;;;;3.73;1.30;;;;;;;;;;5091228;28;20204;-48
2022/09/01 07:13:08;;;;;;;2.17;1.30;;;;;;;;;;5092234;28;20200;-50
2022/09/01 07:15:37;;;;;;;3.70;1.30;;;;;;;;;;5091697;28;20197;-49
2022/09/01 07:18:03;;;;;;;2.30;1.47;;;;;;;;;;5091428;28;20226;-49
2022/09/01 07:20:30;;;;;;;2.47;1.20;;;;;;;;;;5091450;28;20200;-50
2022/09/01 07:22:56;;;;;;;1.63;1.20;;;;;;;;;;5091929;28;20208;-48
2022/09/01 07:25:24;;;;;;;5.47;1.50;;;;;;;;;;5091081;28;20250;-48
2022/09/01 07:27:50;;;;;;;3.03;1.30;;;;;;;;;;5092054;28;20260;-49
2022/09/01 07:30:17;;;;;;;2.47;1.20;;;;;;;;;;5091860;28;20279;-48
2022/09/01 07:32:43;;;;;;;3.70;1.47;;;;;;;;;;5091726;28;20263;-49
2022/09/01 07:35:10;;;;;;;1.00;0.87;;;;;;;;;;5091874;28;20270;-49
2022/09/01 07:37:36;;;;;;;2.20;1.20;;;;;;;;;;5091573;28;20288;-54
2022/09/01 07:40:05;;;;;;;2.40;1.10;;;;;;;;;;5091601;28;20657;-54
2022/09/01 07:42:32;;;;;;;1.97;1.20;;;;;;;;;;5090640;28;20643;-53
2022/09/01 07:44:59;;;;;;;2.70;1.20;;;;;;;;;;5090719;28;20282;-54
2022/09/01 07:47:28;;;;;;;1.43;1.13;;;;;;;;;;5090638;28;20231;-53
2022/09/01 07:49:54;;;;;;;2.03;1.47;;;;;;;;;;5091506;28;20563;-54
2022/09/01 07:52:20;;;;;;;2.17;1.10;;;;;;;;;;5091298;28;20209;-54
2022/09/01 07:54:46;;;;;;;2.00;1.20;;;;;;;;;;5091484;28;20284;-54
2022/09/01 07:57:13;;;;;;;6.53;1.40;;;;;;;;;;5091154;28;20194;-54
2022/09/01 07:59:41;;;;;;;1.53;1.20;;;;;;;;;;5089997;28;20668;-53
2022/09/01 08:02:07;;;;;;;1.80;1.43;;;;;;;;;;5091460;28;20214;-53
2022/09/01 08:04:33;;;;;;;2.97;1.20;;;;;;;;;;5091123;28;20194;-54
2022/09/01 08:07:00;;;;;;;1.40;1.00;;;;;;;;;;5092574;28;20919;-47
2022/09/01 08:09:26;;;;;;;4.17;1.20;;;;;;;;;;5111578;28;20273;-47
2022/09/01 08:11:52;;;;;;;3.07;1.40;;;;;;;;;;5110821;28;20217;-46
2022/09/01 08:14:18;;;;;;;6.73;1.57;;;;;;;;;;5109011;28;20251;-46
2022/09/01 08:16:46;;;;;;;5.03;1.70;;;;;;;;;;5111182;28;20197;-47
2022/09/01 08:19:12;;;;;;;1.10;0.97;;;;;;;;;;5097638;28;20231;-48
2022/09/01 08:21:39;;;;;;;2.07;1.00;;;;;;;;;;5090739;28;20202;-46
2022/09/01 08:24:05;;;;;;;3.00;0.93;;;;;;;;;;5090931;28;20222;-47
2022/09/01 08:26:31;;;;;;;2.50;1.10;;;;;;;;;;5090842;28;20673;-47
2022/09/01 08:28:57;;;;;;;1.63;0.97;;;;;;;;;;5090733;28;20193;-47
2022/09/01 08:31:24;;;;;;;2.57;1.07;;;;;;;;;;5090719;28;20195;-47
2022/09/01 08:33:51;;;;;;;1.43;0.90;;;;;;;;;;5089250;28;20302;-47
2022/09/01 08:36:17;;;;;;;1.17;0.93;;;;;;;;;;5090770;28;20207;-47
2022/09/01 08:38:43;;;;;;;1.37;1.07;;;;;;;;;;5088762;28;20302;-47
2022/09/01 08:41:15;;;;;;;2.30;1.17;;;;;;;;;;5090654;28;20222;-47
2022/09/01 08:43:47;;;;;;;2.00;0.80;;;;;;;;;;5088932;28;20244;-46
2022/09/01 08:46:16;;;;;;;1.33;0.90;;;;;;;;;;5090175;28;20206;-46
2022/09/01 08:48:43;;;;;;;1.73;1.10;;;;;;;;;;5090188;28;20297;-45
2022/09/01 08:51:13;;;;;;;3.77;1.20;;;;;;;;;;5090735;28;20569;-47
2022/09/01 08:53:42;;;;;;;2.50;1.00;;;;;;;;;;5090337;28;20299;-46
2022/09/01 08:56:10;;;;;;;2.37;0.90;;;;;;;;;;5088402;28;20231;-46
2022/09/01 08:58:36;;;;;;;2.20;0.90;;;;;;;;;;5088010;28;20266;-47
2022/09/01 09:01:03;;;;;;;3.10;0.73;;;;;;;;;;5090261;28;20205;-47
2022/09/01 09:03:36;;;;;;;2.47;1.07;;;;;;;;;;5089080;28;20675;-46
2022/09/01 09:06:08;;;;;;;2.87;1.10;;;;;;;;;;5092969;28;20240;-47
2022/09/01 09:08:56;;;;;;;6.00;1.10;;;;;;;;;;5092369;28;20757;-45
2022/09/01 09:11:37;;;;;;;2.10;0.80;;;;;;;;;;5094409;28;20206;-46
2022/09/01 09:14:10;;;;;;;1.30;0.80;;;;;;;;;;5094284;28;20201;-45
2022/09/01 09:16:38;;;;;;;1.23;0.80;;;;;;;;;;5094184;28;20255;-46
2022/09/01 09:19:09;;;;;;;2.43;0.90;;;;;;;;;;5093760;28;20221;-45
2022/09/01 09:21:36;;;;;;;1.67;0.87;;;;;;;;;;5094081;28;20537;-45
2022/09/01 09:24:08;;;;;;;4.17;1.00;;;;;;;;;;5094205;28;20195;-45
2022/09/01 09:26:34;;;;;;;2.57;0.97;;;;;;;;;;5093952;28;20230;-45
2022/09/01 09:29:00;;;;;;;1.70;0.93;;;;;;;;;;5093921;28;20292;-45
2022/09/01 09:31:28;;;;;;;2.47;0.93;;;;;;;;;;5093641;28;20201;-45
2022/09/01 09:33:54;;;;;;;1.60;0.70;;;;;;;;;;5093601;28;20201;-45
2022/09/01 09:36:21;;;;;;;1.97;1.10;;;;;;;;;;5093815;28;20203;-45
2022/09/01 09:38:47;;;;;;;1.53;0.80;;;;;;;;;;5093490;28;20220;-45
2022/09/01 09:41:18;;;;;;;1.07;0.93;;;;;;;;;;5093622;28;20538;-45
2022/09/01 09:43:47;;;;;;;1.10;0.80;;;;;;;;;;5093325;28;20634;-45
2022/09/01 09:46:24;;;;;;;1.20;0.77;;;;;;;;;;5093623;28;20199;-45
2022/09/01 09:49:05;;;;;;;1.80;0.60;;;;;;;;;;5088896;28;20724;-44
2022/09/01 09:51:31;;;;;;;0.80;0.80;;;;;;;;;;5093498;28;20188;-45
2022/09/01 09:54:09;;;;;;;2.20;0.80;;;;;;;;;;5093438;28;20208;-44
2022/09/01 09:56:37;;;;;;;2.80;0.90;;;;;;;;;;5093455;28;20211;-46
2022/09/01 09:59:16;;;;;;;1.00;0.90;;;;;;;;;;5093051;28;20600;-44
2022/09/01 10:01:42;;;;;;;3.30;1.00;;;;;;;;;;5093309;28;20223;-44
2022/09/01 10:04:08;;;;;;;2.13;0.80;;;;;;;;;;5093142;28;20738;-45
2022/09/01 10:06:36;;;;;;;1.87;0.90;;;;;;;;;;5092681;28;20247;-45
2022/09/01 10:09:03;;;;;;;1.20;1.00;;;;;;;;;;5093084;28;20650;-46
2022/09/01 10:11:32;;;;;;;0.77;0.77;;;;;;;;;;5092838;28;20205;-45
2022/09/01 10:14:00;;;;;;;1.33;0.77;;;;;;;;;;5090706;28;20619;-47
2022/09/01 10:16:28;;;;;;;0.80;0.80;;;;;;;;;;5089914;28;20198;-47
2022/09/01 10:18:59;;;;;;;0.70;0.70;;;;;;;;;;5093156;28;20780;-47
2022/09/01 10:21:28;;;;;;;1.40;0.80;;;;;;;;;;5093133;28;20652;-47
2022/09/01 10:23:54;;;;;;;1.43;0.90;;;;;;;;;;5093054;28;20231;-47
2022/09/01 10:26:23;;;;;;;0.70;0.63;;;;;;;;;;5092815;28;20241;-48
2022/09/01 10:28:52;;;;;;;2.87;0.77;;;;;;;;;;5093139;28;20196;-49
2022/09/01 10:31:20;;;;;;;1.07;0.90;;;;;;;;;;5092573;28;20535;-49
2022/09/01 10:33:46;;;;;;;1.30;0.90;;;;;;;;;;5092474;28;20291;-49
2022/09/01 10:36:13;;;;;;;1.40;0.90;;;;;;;;;;5092762;28;20187;-48
2022/09/01 10:38:39;;;;;;;1.13;0.80;;;;;;;;;;5092648;28;20227;-48
2022/09/01 10:41:10;;;;;;;0.83;0.70;;;;;;;;;;5092879;28;20704;-49
2022/09/01 10:43:39;;;;;;;0.70;0.70;;;;;;;;;;5092650;28;20291;-48
2022/09/01 10:46:25;;;;;;;0.70;0.70;;;;;;;;;;5092496;28;20601;-48
2022/09/01 10:48:53;;;;;;;1.80;0.80;;;;;;;;;;5086191;28;20202;-48
2022/09/01 10:51:38;;;;;;;0.87;0.70;;;;;;;;;;5092810;28;20211;-48
2022/09/01 10:54:04;;;;;;;0.57;0.57;;;;;;;;;;5092707;28;20186;-47
2022/09/01 10:56:36;;;;;;;0.70;0.60;;;;;;;;;;5092469;28;20204;-48
2022/09/01 10:59:07;;;;;;;2.90;0.60;;;;;;;;;;5091718;28;20263;-48
2022/09/01 11:01:52;;;;;;;2.47;0.67;;;;;;;;;;5091737;28;20298;-49
2022/09/01 11:04:20;;;;;;;1.60;0.80;;;;;;;;;;5092283;28;20714;-48
2022/09/01 11:07:00;;;;;;;1.77;0.73;;;;;;;;;;5091845;28;20611;-49
2022/09/01 11:09:27;;;;;;;0.63;0.60;;;;;;;;;;5092455;28;20200;-49
2022/09/01 11:12:05;;;;;;;1.13;0.77;;;;;;;;;;5092083;28;20666;-48
2022/09/01 11:14:34;;;;;;;2.10;0.80;;;;;;;;;;5092286;28;20205;-49
2022/09/01 11:17:18;;;;;;;1.60;0.60;;;;;;;;;;5092119;28;20229;-48
2022/09/01 11:19:47;;;;;;;0.50;0.50;;;;;;;;;;5092087;28;20282;-48
2022/09/01 11:22:24;;;;;;;0.80;0.80;;;;;;;;;;5092072;28;20682;-48
2022/09/01 11:24:52;;;;;;;1.43;0.60;;;;;;;;;;5092283;28;20209;-49
2022/09/01 11:27:37;;;;;;;2.43;0.63;;;;;;;;;;5091865;28;20202;-48
2022/09/01 11:30:08;;;;;;;1.97;0.80;;;;;;;;;;5092190;28;20194;-49
2022/09/01 11:32:35;;;;;;;2.00;0.63;;;;;;;;;;5091842;28;20654;-48
2022/09/01 11:35:04;;;;;;;0.50;0.50;;;;;;;;;;5091784;28;20196;-48
2022/09/01 11:37:32;;;;;;;7.60;1.07;;;;;;;;;;5091583;28;20402;-49
2022/09/01 11:40:00;;;;;;;0.93;0.90;;;;;;;;;;5092037;28;20232;-47
2022/09/01 11:42:27;;;;;;;0.63;0.57;;;;;;;;;;5091720;28;20212;-50
2022/09/01 11:44:56;;;;;;;2.40;0.63;;;;;;;;;;5091505;28;20209;-46
2022/09/01 11:47:25;;;;;;;3.73;0.60;;;;;;;;;;5091722;28;20205;-47
2022/09/01 11:49:53;;;;;;;1.00;0.70;;;;;;;;;;5091634;28;20299;-47
2022/09/01 11:52:21;;;;;;;1.90;0.80;;;;;;;;;;5091590;28;20644;-47
2022/09/01 11:54:50;;;;;;;0.50;0.50;;;;;;;;;;5091319;28;20208;-48
2022/09/01 11:57:17;;;;;;;1.07;0.60;;;;;;;;;;5090408;28;20192;-48
2022/09/01 11:59:44;;;;;;;1.10;0.80;;;;;;;;;;5091375;28;20599;-47
2022/09/01 12:02:16;;;;;;;1.97;0.43;;;;;;;;;;5091251;28;20195;-48
2022/09/01 12:04:43;;;;;;;0.73;0.67;;;;;;;;;;5091513;28;20223;-47
2022/09/01 12:07:12;;;;;;;0.87;0.77;;;;;;;;;;5091263;28;20297;-48
2022/09/01 12:09:42;;;;;;;1.03;0.70;;;;;;;;;;5091342;28;20191;-48
2022/09/01 12:12:24;;;;;;;2.90;0.90;;;;;;;;;;5090803;28;20734;-50
2022/09/01 12:14:55;;;;;;;1.50;0.70;;;;;;;;;;5090017;28;20300;-48
2022/09/01 12:17:21;;;;;;;0.80;0.70;;;;;;;;;;5089861;28;20202;-49
2022/09/01 12:19:47;;;;;;;1.23;0.70;;;;;;;;;;5091444;28;20222;-47
2022/09/01 12:22:14;;;;;;;4.60;0.87;;;;;;;;;;5091652;28;20199;-47
2022/09/01 12:24:46;;;;;;;0.53;0.53;;;;;;;;;;5091486;28;20199;-48
2022/09/01 12:27:12;;;;;;;1.47;0.70;;;;;;;;;;5091585;28;20680;-48
2022/09/01 12:29:38;;;;;;;0.73;0.70;;;;;;;;;;5091328;28;20226;-48
2022/09/01 12:32:04;;;;;;;2.97;0.70;;;;;;;;;;5091591;28;20670;-48
2022/09/01 12:34:38;;;;;;;2.03;0.70;;;;;;;;;;5091372;28;20247;-49
2022/09/01 12:37:05;;;;;;;0.67;0.63;;;;;;;;;;5091349;28;20722;-48
2022/09/01 12:39:35;;;;;;;1.03;0.63;;;;;;;;;;5091441;28;20246;-48
2022/09/01 12:42:04;;;;;;;2.67;0.87;;;;;;;;;;5095590;28;20248;-48
2022/09/01 12:44:33;;;;;;;1.07;0.83;;;;;;;;;;5095447;28;20207;-48
2022/09/01 12:47:00;;;;;;;1.60;0.70;;;;;;;;;;5095539;28;20229;-48
2022/09/01 12:49:33;;;;;;;0.70;0.50;;;;;;;;;;5094244;28;20199;-48
2022/09/01 12:52:15;;;;;;;1.20;0.87;;;;;;;;;;5095369;28;20199;-47
2022/09/01 12:54:41;;;;;;;1.20;0.90;;;;;;;;;;5095188;28;20290;-47
2022/09/01 12:57:09;;;;;;;1.03;0.73;;;;;;;;;;5095348;28;20199;-49
2022/09/01 12:59:35;;;;;;;2.50;0.63;;;;;;;;;;5094903;28;20623;-49
2022/09/01 13:02:20;;;;;;;1.23;0.80;;;;;;;;;;5094714;28;20209;-50
2022/09/01 13:04:46;;;;;;;1.30;0.67;;;;;;;;;;5094577;28;20187;-48
2022/09/01 13:07:12;;;;;;;0.50;0.50;;;;;;;;;;5094462;28;20240;-47
2022/09/01 13:09:38;;;;;;;1.13;0.73;;;;;;;;;;5094498;28;20547;-46
2022/09/01 13:12:16;;;;;;;1.47;0.80;;;;;;;;;;5094396;28;20202;-47
2022/09/01 13:14:42;;;;;;;0.97;0.80;;;;;;;;;;5094637;28;20629;-47
2022/09/01 13:17:08;;;;;;;1.53;0.90;;;;;;;;;;5094123;28;20222;-47
2022/09/01 13:19:34;;;;;;;0.83;0.80;;;;;;;;;;5094134;28;20258;-48
2022/09/01 13:22:00;;;;;;;1.10;1.00;;;;;;;;;;5093440;28;20318;-47
2022/09/01 13:24:26;;;;;;;1.77;0.90;;;;;;;;;;5094027;28;20198;-47
2022/09/01 13:26:56;;;;;;;0.50;0.50;;;;;;;;;;5094204;28;20201;-47
2022/09/01 13:29:23;;;;;;;2.60;0.80;;;;;;;;;;5093850;28;20185;-47
2022/09/01 13:31:49;;;;;;;2.77;0.90;;;;;;;;;;5094287;28;20280;-46
2022/09/01 13:34:15;;;;;;;0.83;0.83;;;;;;;;;;5093706;28;20194;-46
2022/09/01 13:36:41;;;;;;;2.30;0.83;;;;;;;;;;5093598;28;20260;-49
2022/09/01 13:39:07;;;;;;;0.67;0.67;;;;;;;;;;5093589;28;20213;-47
2022/09/01 13:41:33;;;;;;;2.77;0.90;;;;;;;;;;5093654;28;20626;-47
2022/09/01 13:43:59;;;;;;;1.53;0.87;;;;;;;;;;5093170;28;20200;-46
2022/09/01 13:46:27;;;;;;;2.67;1.10;;;;;;;;;;5094160;28;20223;-47
2022/09/01 13:48:53;;;;;;;3.63;0.90;;;;;;;;;;5093832;28;20207;-46
2022/09/01 13:51:24;;;;;;;4.53;1.00;;;;;;;;;;5092872;28;20210;-47
2022/09/01 13:53:51;;;;;;;1.00;1.00;;;;;;;;;;5092583;28;20227;-47
2022/09/01 13:56:17;;;;;;;1.13;0.90;;;;;;;;;;5093581;28;20196;-47
2022/09/01 13:58:43;;;;;;;1.20;1.10;;;;;;;;;;5092846;28;20206;-47
2022/09/01 14:01:09;;;;;;;1.07;0.97;;;;;;;;;;5093639;28;20712;-47
2022/09/01 14:03:36;;;;;;;1.53;0.83;;;;;;;;;;5093279;28;20241;-48
2022/09/01 14:06:02;;;;;;;0.60;0.60;;;;;;;;;;5092398;28;20660;-48
2022/09/01 14:08:30;;;;;;;2.07;0.80;;;;;;;;;;5091985;28;20297;-48
2022/09/01 14:10:56;;;;;;;2.20;0.80;;;;;;;;;;5093480;28;20200;-47
2022/09/01 14:13:24;;;;;;;2.33;0.70;;;;;;;;;;5093745;28;20261;-47
2022/09/01 14:15:50;;;;;;;0.93;0.80;;;;;;;;;;5093427;28;20191;-48
2022/09/01 14:18:17;;;;;;;1.00;0.73;;;;;;;;;;5093362;28;20252;-48
2022/09/01 14:20:46;;;;;;;3.10;0.87;;;;;;;;;;5093289;28;20589;-48
2022/09/01 14:23:13;;;;;;;0.97;0.80;;;;;;;;;;5093350;28;20260;-48
2022/09/01 14:25:41;;;;;;;0.80;0.80;;;;;;;;;;5093289;28;20689;-47
2022/09/01 14:28:07;;;;;;;1.20;0.67;;;;;;;;;;5093085;28;20653;-47
2022/09/01 14:30:33;;;;;;;3.10;1.07;;;;;;;;;;5092304;28;20214;-48
2022/09/01 14:32:59;;;;;;;1.17;0.50;;;;;;;;;;5092778;28;20210;-47
2022/09/01 14:35:26;;;;;;;2.67;1.10;;;;;;;;;;5093000;28;20274;-47
2022/09/01 14:37:53;;;;;;;3.10;0.80;;;;;;;;;;5092873;28;20195;-47
2022/09/01 14:40:20;;;;;;;1.10;0.80;;;;;;;;;;5092905;28;20262;-47
2022/09/01 14:42:48;;;;;;;1.33;1.13;;;;;;;;;;5092844;28;20203;-52
2022/09/01 14:45:15;;;;;;;1.70;0.80;;;;;;;;;;5092888;28;20190;-47
2022/09/01 14:47:43;;;;;;;1.73;0.80;;;;;;;;;;5092314;28;20199;-48
2022/09/01 14:50:09;;;;;;;1.50;0.93;;;;;;;;;;5092288;28;20218;-47
2022/09/01 14:52:35;;;;;;;0.80;0.53;;;;;;;;;;5092533;28;20195;-47
2022/09/01 14:55:03;;;;;;;1.17;0.97;;;;;;;;;;5090431;28;20225;-47